sensor_id;sensor_type;location;lat;lon;timestamp;pressure;altitude;pressure_sealevel;temperature;humidity
11001;BME280;5553;48.506;8.870;2023-04-26T07:49:39;96481.44;;;9.29;100.00
11001;BME280;5553;48.506;8.870;2023-04-26T07:52:08;96443.53;;;8.78;100.00
11001;BME280;5553;48.506;8.870;2023-04-26T07:54:36;96456.38;;;9.47;100.00
11001;BME280;5553;48.506;8.870;2023-04-26T07:57:04;96451.41;;;9.59;100.00
11001;BME280;5553;48.506;8.870;2023-04-26T07:59:33;96439.84;;;9.02;100.00
11001;BME280;5553;48.506;8.870;2023-04-26T08:02:01;96430.41;;;8.49;100.00
11001;BME280;5553;48.506;8.870;2023-04-26T08:04:31;96444.16;;;8.51;100.00
11001;BME280;5553;48.506;8.870;2023-04-26T08:07:03;96429.00;;;9.27;100.00
11001;BME280;5553;48.506;8.870;2023-04-26T08:09:31;96414.53;;;9.38;97.40
11001;BME280;5553;48.506;8.870;2023-04-26T08:11:59;96426.06;;;10.01;96.02
11001;BME280;5553;48.506;8.870;2023-04-26T08:14:28;96395.53;;;10.35;90.67
11001;BME280;5553;48.506;8.870;2023-04-26T08:16:58;96391.41;;;9.76;88.99
11001;BME280;5553;48.506;8.870;2023-04-26T08:19:26;96433.03;;;10.93;93.62
11001;BME280;5553;48.506;8.870;2023-04-26T08:21:56;96415.34;;;10.87;91.13
11001;BME280;5553;48.506;8.870;2023-04-26T08:24:27;96409.41;;;11.20;89.65
11001;BME280;5553;48.506;8.870;2023-04-26T08:26:56;96406.75;;;10.72;89.22
11001;BME280;5553;48.506;8.870;2023-04-26T08:29:26;96422.31;;;11.56;89.18
11001;BME280;5553;48.506;8.870;2023-04-26T08:31:55;96431.34;;;12.61;88.45
11001;BME280;5553;48.506;8.870;2023-04-26T08:34:23;96411.25;;;11.94;85.74
11001;BME280;5553;48.506;8.870;2023-04-26T08:36:52;96391.91;;;11.87;83.19
11001;BME280;5553;48.506;8.870;2023-04-26T08:39:21;96415.69;;;12.00;86.64
11001;BME280;5553;48.506;8.870;2023-04-26T08:41:54;96367.09;;;12.14;80.00
11001;BME280;5553;48.506;8.870;2023-04-26T08:44:24;96303.63;;;11.68;72.21
11001;BME280;5553;48.506;8.870;2023-04-26T08:46:58;96334.31;;;11.75;74.06
11001;BME280;5553;48.506;8.870;2023-04-26T08:49:34;96344.50;;;12.38;74.14
11001;BME280;5553;48.506;8.870;2023-04-26T08:52:08;96301.78;;;12.21;69.42
11001;BME280;5553;48.506;8.870;2023-04-26T08:54:38;96317.22;;;12.38;69.57
11001;BME280;5553;48.506;8.870;2023-04-26T08:57:10;96341.84;;;11.65;72.58
11001;BME280;5553;48.506;8.870;2023-04-26T08:59:40;96334.75;;;11.85;71.44
11001;BME280;5553;48.506;8.870;2023-04-26T09:02:09;96357.13;;;11.90;73.00
11001;BME280;5553;48.506;8.870;2023-04-26T09:04:40;96305.28;;;10.74;69.79
11001;BME280;5553;48.506;8.870;2023-04-26T09:07:09;96343.72;;;11.84;70.71
11001;BME280;5553;48.506;8.870;2023-04-26T09:09:41;96348.53;;;12.41;69.79
11001;BME280;5553;48.506;8.870;2023-04-26T09:12:12;96293.16;;;12.59;64.43
11001;BME280;5553;48.506;8.870;2023-04-26T09:14:40;96336.50;;;13.16;67.51
11001;BME280;5553;48.506;8.870;2023-04-26T09:17:23;96314.00;;;11.56;67.80
11001;BME280;5553;48.506;8.870;2023-04-26T09:19:52;96387.03;;;12.17;73.38
11001;BME280;5553;48.506;8.870;2023-04-26T09:22:30;96313.13;;;10.61;69.43
11001;BME280;5553;48.506;8.870;2023-04-26T09:24:59;96362.91;;;9.86;75.81
11001;BME280;5553;48.506;8.870;2023-04-26T09:27:35;96364.66;;;10.29;75.58
11001;BME280;5553;48.506;8.870;2023-04-26T09:30:06;96340.66;;;10.52;72.48
11001;BME280;5553;48.506;8.870;2023-04-26T09:32:43;96331.03;;;11.40;70.95
11001;BME280;5553;48.506;8.870;2023-04-26T09:35:26;96356.88;;;11.58;74.30
11001;BME280;5553;48.506;8.870;2023-04-26T09:37:55;96354.63;;;11.55;73.14
11001;BME280;5553;48.506;8.870;2023-04-26T09:40:27;96292.72;;;10.89;68.99
11001;BME280;5553;48.506;8.870;2023-04-26T09:43:00;96325.66;;;11.00;72.41
11001;BME280;5553;48.506;8.870;2023-04-26T09:45:30;96384.31;;;12.76;75.04
11001;BME280;5553;48.506;8.870;2023-04-26T09:48:14;96341.97;;;12.63;71.39
11001;BME280;5553;48.506;8.870;2023-04-26T09:50:43;96297.97;;;12.75;67.19
11001;BME280;5553;48.506;8.870;2023-04-26T09:53:26;96254.25;;;11.88;64.34
11001;BME280;5553;48.506;8.870;2023-04-26T09:55:56;96277.81;;;12.68;64.91
11001;BME280;5553;48.506;8.870;2023-04-26T09:58:27;96331.75;;;12.80;69.50
11001;BME280;5553;48.506;8.870;2023-04-26T10:00:56;96339.09;;;14.11;67.62
11001;BME280;5553;48.506;8.870;2023-04-26T10:03:25;96321.09;;;13.70;67.22
11001;BME280;5553;48.506;8.870;2023-04-26T10:05:54;96270.13;;;13.04;64.24
11001;BME280;5553;48.506;8.870;2023-04-26T10:08:23;96282.63;;;13.61;64.04
11001;BME280;5553;48.506;8.870;2023-04-26T10:10:52;96254.94;;;13.82;61.74
11001;BME280;5553;48.506;8.870;2023-04-26T10:13:21;96259.75;;;14.83;60.23
11001;BME280;5553;48.506;8.870;2023-04-26T10:15:52;96305.97;;;14.64;64.29
11001;BME280;5553;48.506;8.870;2023-04-26T10:18:21;96303.75;;;14.79;63.44
11001;BME280;5553;48.506;8.870;2023-04-26T10:20:51;96260.09;;;15.05;60.20
11001;BME280;5553;48.506;8.870;2023-04-26T10:23:22;96297.06;;;15.79;62.17
11001;BME280;5553;48.506;8.870;2023-04-26T10:25:52;96300.41;;;15.86;61.82
11001;BME280;5553;48.506;8.870;2023-04-26T10:28:52;96230.84;;;13.83;58.83
11001;BME280;5553;48.506;8.870;2023-04-26T10:31:23;96273.16;;;15.07;60.74
11001;BME280;5553;48.506;8.870;2023-04-26T10:34:18;96290.97;;;16.25;60.21
11001;BME280;5553;48.506;8.870;2023-04-26T10:37:05;96250.06;;;15.49;58.87
11001;BME280;5553;48.506;8.870;2023-04-26T10:39:34;96238.97;;;13.38;60.98
11001;BME280;5553;48.506;8.870;2023-04-26T10:42:20;96270.34;;;14.72;60.44
11001;BME280;5553;48.506;8.870;2023-04-26T10:44:52;96236.38;;;14.92;57.76
11001;BME280;5553;48.506;8.870;2023-04-26T10:47:28;96232.91;;;14.91;57.55
11001;BME280;5553;48.506;8.870;2023-04-26T10:50:05;96221.81;;;13.66;58.55
11001;BME280;5553;48.506;8.870;2023-04-26T10:52:34;96204.06;;;13.66;58.01
11001;BME280;5553;48.506;8.870;2023-04-26T10:55:04;96235.22;;;14.14;58.70
11001;BME280;5553;48.506;8.870;2023-04-26T10:57:49;96185.88;;;13.26;56.56
11001;BME280;5553;48.506;8.870;2023-04-26T11:00:26;96233.97;;;13.73;58.32
11001;BME280;5553;48.506;8.870;2023-04-26T11:03:02;96200.53;;;12.91;58.04
11001;BME280;5553;48.506;8.870;2023-04-26T11:05:52;96184.97;;;14.01;55.26
11001;BME280;5553;48.506;8.870;2023-04-26T11:08:25;96154.91;;;13.89;53.64
11001;BME280;5553;48.506;8.870;2023-04-26T11:11:04;96221.78;;;14.83;56.95
11001;BME280;5553;48.506;8.870;2023-04-26T11:13:35;96209.06;;;14.55;57.10
11001;BME280;5553;48.506;8.870;2023-04-26T11:16:04;96219.34;;;14.51;57.19
11001;BME280;5553;48.506;8.870;2023-04-26T11:18:37;96165.75;;;14.06;54.47
11001;BME280;5553;48.506;8.870;2023-04-26T11:21:06;96140.63;;;13.71;53.48
11001;BME280;5553;48.506;8.870;2023-04-26T11:23:35;96273.94;;;15.07;60.35
11001;BME280;5553;48.506;8.870;2023-04-26T11:26:04;96252.59;;;13.42;62.27
11001;BME280;5553;48.506;8.870;2023-04-26T11:28:34;96231.13;;;13.75;60.01
11001;BME280;5553;48.506;8.870;2023-04-26T11:31:04;96240.38;;;14.09;60.46
11001;BME280;5553;48.506;8.870;2023-04-26T11:33:36;96221.88;;;15.06;58.45
11001;BME280;5553;48.506;8.870;2023-04-26T11:36:05;96236.56;;;15.09;59.50
11001;BME280;5553;48.506;8.870;2023-04-26T11:38:34;96146.59;;;12.53;58.03
11001;BME280;5553;48.506;8.870;2023-04-26T11:41:02;96201.66;;;13.40;59.50
11001;BME280;5553;48.506;8.870;2023-04-26T11:43:34;96208.63;;;14.39;59.69
11001;BME280;5553;48.506;8.870;2023-04-26T11:46:04;96177.66;;;14.70;57.04
11001;BME280;5553;48.506;8.870;2023-04-26T11:48:36;96167.78;;;15.78;53.65
11001;BME280;5553;48.506;8.870;2023-04-26T11:51:05;96197.00;;;16.13;55.52
11001;BME280;5553;48.506;8.870;2023-04-26T11:53:36;96127.88;;;15.54;52.22
11001;BME280;5553;48.506;8.870;2023-04-26T11:56:12;96161.91;;;16.80;51.99
11001;BME280;5553;48.506;8.870;2023-04-26T11:58:45;96155.09;;;16.61;51.52
11001;BME280;5553;48.506;8.870;2023-04-26T12:01:21;96048.53;;;12.98;51.51
11001;BME280;5553;48.506;8.870;2023-04-26T12:03:53;96179.81;;;14.73;57.10
11001;BME280;5553;48.506;8.870;2023-04-26T12:06:25;96113.41;;;14.91;51.99
11001;BME280;5553;48.506;8.870;2023-04-26T12:08:57;96141.22;;;14.10;55.36
11001;BME280;5553;48.506;8.870;2023-04-26T12:11:25;96155.28;;;14.89;53.75
11001;BME280;5553;48.506;8.870;2023-04-26T12:13:57;96178.53;;;14.94;56.10
11001;BME280;5553;48.506;8.870;2023-04-26T12:16:25;96145.66;;;14.77;54.60
11001;BME280;5553;48.506;8.870;2023-04-26T12:18:56;96150.75;;;15.20;54.15
11001;BME280;5553;48.506;8.870;2023-04-26T12:21:25;96169.00;;;16.22;53.54
11001;BME280;5553;48.506;8.870;2023-04-26T12:23:53;96155.94;;;16.21;52.69
11001;BME280;5553;48.506;8.870;2023-04-26T12:26:22;96132.50;;;15.47;52.99
11001;BME280;5553;48.506;8.870;2023-04-26T12:29:06;96102.97;;;13.99;53.75
11001;BME280;5553;48.506;8.870;2023-04-26T12:31:34;96193.63;;;14.82;57.39
11001;BME280;5553;48.506;8.870;2023-04-26T12:34:05;96167.31;;;14.62;56.55
11001;BME280;5553;48.506;8.870;2023-04-26T12:36:33;96206.88;;;15.24;57.80
11001;BME280;5553;48.506;8.870;2023-04-26T12:39:02;96155.88;;;13.94;57.48
11001;BME280;5553;48.506;8.870;2023-04-26T12:41:31;96177.75;;;13.71;58.52
11001;BME280;5553;48.506;8.870;2023-04-26T12:43:59;96115.31;;;13.07;55.80
11001;BME280;5553;48.506;8.870;2023-04-26T12:46:27;96136.19;;;13.47;56.63
11001;BME280;5553;48.506;8.870;2023-04-26T12:48:56;96142.00;;;13.74;56.44
11001;BME280;5553;48.506;8.870;2023-04-26T12:51:27;96155.31;;;13.67;57.57
11001;BME280;5553;48.506;8.870;2023-04-26T12:53:56;96097.50;;;13.14;54.85
11001;BME280;5553;48.506;8.870;2023-04-26T12:56:24;96123.38;;;13.12;55.88
11001;BME280;5553;48.506;8.870;2023-04-26T12:58:53;96140.09;;;14.66;54.17
11001;BME280;5553;48.506;8.870;2023-04-26T13:01:21;96089.50;;;14.31;51.56
11001;BME280;5553;48.506;8.870;2023-04-26T13:03:50;96111.91;;;14.05;53.38
11001;BME280;5553;48.506;8.870;2023-04-26T13:06:19;96140.63;;;13.90;55.52
11001;BME280;5553;48.506;8.870;2023-04-26T13:08:50;96096.63;;;14.19;52.27
11001;BME280;5553;48.506;8.870;2023-04-26T13:11:18;96066.25;;;13.66;51.59
11001;BME280;5553;48.506;8.870;2023-04-26T13:13:47;96169.16;;;13.51;57.97
11001;BME280;5553;48.506;8.870;2023-04-26T13:16:16;96150.75;;;13.56;57.13
11001;BME280;5553;48.506;8.870;2023-04-26T13:18:44;96157.47;;;14.32;56.49
11001;BME280;5553;48.506;8.870;2023-04-26T13:21:13;96125.63;;;14.51;53.77
11001;BME280;5553;48.506;8.870;2023-04-26T13:23:41;96140.75;;;14.80;53.79
11001;BME280;5553;48.506;8.870;2023-04-26T13:26:13;96127.38;;;14.57;53.70
11001;BME280;5553;48.506;8.870;2023-04-26T13:28:42;96115.28;;;15.14;51.92
11001;BME280;5553;48.506;8.870;2023-04-26T13:31:11;96118.31;;;15.53;51.67
11001;BME280;5553;48.506;8.870;2023-04-26T13:33:41;96171.22;;;16.14;54.53
11001;BME280;5553;48.506;8.870;2023-04-26T13:36:09;96174.22;;;17.15;53.11
11001;BME280;5553;48.506;8.870;2023-04-26T13:38:39;96141.78;;;16.61;52.13
11001;BME280;5553;48.506;8.870;2023-04-26T13:41:08;96109.59;;;16.33;50.22
11001;BME280;5553;48.506;8.870;2023-04-26T13:43:39;96120.66;;;14.96;53.99
11001;BME280;5553;48.506;8.870;2023-04-26T13:46:07;96077.53;;;14.10;52.65
11001;BME280;5553;48.506;8.870;2023-04-26T13:48:35;96095.19;;;15.19;51.14
11001;BME280;5553;48.506;8.870;2023-04-26T13:51:04;96130.25;;;16.55;50.63
11001;BME280;5553;48.506;8.870;2023-04-26T13:53:32;96092.53;;;16.18;49.80
11001;BME280;5553;48.506;8.870;2023-04-26T13:56:01;96095.47;;;17.24;48.11
11001;BME280;5553;48.506;8.870;2023-04-26T13:58:29;96106.25;;;17.85;48.34
11001;BME280;5553;48.506;8.870;2023-04-26T14:01:01;96042.66;;;16.25;47.25
11001;BME280;5553;48.506;8.870;2023-04-26T14:03:29;96124.31;;;17.99;49.05
11001;BME280;5553;48.506;8.870;2023-04-26T14:05:57;96149.31;;;15.83;54.38
11001;BME280;5553;48.506;8.870;2023-04-26T14:08:27;96082.31;;;16.55;48.82
11001;BME280;5553;48.506;8.870;2023-04-26T14:10:55;96095.22;;;16.06;50.99
11001;BME280;5553;48.506;8.870;2023-04-26T14:13:23;96088.34;;;16.50;49.30
11001;BME280;5553;48.506;8.870;2023-04-26T14:15:52;96142.22;;;17.82;50.67
11001;BME280;5553;48.506;8.870;2023-04-26T14:18:22;96089.22;;;16.39;49.97
11001;BME280;5553;48.506;8.870;2023-04-26T14:20:48;96067.16;;;15.98;49.12
11001;BME280;5553;48.506;8.870;2023-04-26T14:23:17;96127.91;;;16.87;51.25
11001;BME280;5553;48.506;8.870;2023-04-26T14:25:45;96108.16;;;16.83;50.92
11001;BME280;5553;48.506;8.870;2023-04-26T14:28:13;96094.44;;;17.64;48.13
11001;BME280;5553;48.506;8.870;2023-04-26T14:30:41;96077.94;;;17.67;47.24
11001;BME280;5553;48.506;8.870;2023-04-26T14:33:10;96067.53;;;15.90;50.06
11001;BME280;5553;48.506;8.870;2023-04-26T14:35:41;96080.44;;;16.39;49.59
11001;BME280;5553;48.506;8.870;2023-04-26T14:38:10;96105.97;;;14.82;54.82
11001;BME280;5553;48.506;8.870;2023-04-26T14:40:38;96110.13;;;14.78;54.60
11001;BME280;5553;48.506;8.870;2023-04-26T14:43:07;96119.78;;;15.26;54.84
11001;BME280;5553;48.506;8.870;2023-04-26T14:45:35;96112.13;;;16.40;51.54
11001;BME280;5553;48.506;8.870;2023-04-26T14:48:04;96133.47;;;16.57;53.20
11001;BME280;5553;48.506;8.870;2023-04-26T14:50:32;96071.72;;;16.15;50.08
11001;BME280;5553;48.506;8.870;2023-04-26T14:53:03;96122.97;;;16.22;52.49
11001;BME280;5553;48.506;8.870;2023-04-26T14:55:31;96149.84;;;15.85;55.80
11001;BME280;5553;48.506;8.870;2023-04-26T14:58:00;96115.03;;;16.39;52.70
11001;BME280;5553;48.506;8.870;2023-04-26T15:00:28;96078.50;;;16.79;48.95
11001;BME280;5553;48.506;8.870;2023-04-26T15:02:56;96075.69;;;16.57;49.99
11001;BME280;5553;48.506;8.870;2023-04-26T15:05:25;96112.66;;;16.54;51.82
11001;BME280;5553;48.506;8.870;2023-04-26T15:07:53;96122.91;;;16.91;51.56
11001;BME280;5553;48.506;8.870;2023-04-26T15:10:24;96138.19;;;16.67;53.57
11001;BME280;5553;48.506;8.870;2023-04-26T15:12:52;96102.66;;;16.61;51.10
11001;BME280;5553;48.506;8.870;2023-04-26T15:15:21;96074.13;;;14.82;53.67
11001;BME280;5553;48.506;8.870;2023-04-26T15:17:49;96047.56;;;14.40;52.10
11001;BME280;5553;48.506;8.870;2023-04-26T15:20:18;96081.03;;;16.00;51.39
11001;BME280;5553;48.506;8.870;2023-04-26T15:22:46;96102.09;;;15.90;53.39
11001;BME280;5553;48.506;8.870;2023-04-26T15:25:15;96097.47;;;15.03;54.82
11001;BME280;5553;48.506;8.870;2023-04-26T15:27:46;96094.13;;;14.54;55.06
11001;BME280;5553;48.506;8.870;2023-04-26T15:30:14;96102.31;;;15.06;54.43
11001;BME280;5553;48.506;8.870;2023-04-26T15:32:46;96086.72;;;15.10;53.63
11001;BME280;5553;48.506;8.870;2023-04-26T15:35:14;96084.41;;;14.90;54.25
11001;BME280;5553;48.506;8.870;2023-04-26T15:37:42;96079.53;;;14.45;54.79
11001;BME280;5553;48.506;8.870;2023-04-26T15:40:12;96051.78;;;13.81;53.98
11001;BME280;5553;48.506;8.870;2023-04-26T15:42:40;96085.78;;;13.28;57.28
11001;BME280;5553;48.506;8.870;2023-04-26T15:45:11;96086.56;;;13.72;55.61
11001;BME280;5553;48.506;8.870;2023-04-26T15:47:40;96077.69;;;14.45;54.72
11001;BME280;5553;48.506;8.870;2023-04-26T15:50:08;96068.53;;;14.30;54.36
11001;BME280;5553;48.506;8.870;2023-04-26T15:52:37;96082.28;;;14.38;55.41
11001;BME280;5553;48.506;8.870;2023-04-26T15:55:06;96078.91;;;13.64;56.58
11001;BME280;5553;48.506;8.870;2023-04-26T15:57:35;96076.16;;;13.34;56.95
11001;BME280;5553;48.506;8.870;2023-04-26T16:00:04;96122.56;;;13.80;59.21
11001;BME280;5553;48.506;8.870;2023-04-26T16:02:36;96123.81;;;13.59;60.33
11001;BME280;5553;48.506;8.870;2023-04-26T16:05:05;96144.88;;;13.72;61.65
11001;BME280;5553;48.506;8.870;2023-04-26T16:07:33;96123.38;;;13.44;60.03
11001;BME280;5553;48.506;8.870;2023-04-26T16:10:03;96127.88;;;13.62;60.44
11001;BME280;5553;48.506;8.870;2023-04-26T16:12:32;96108.34;;;13.56;59.33
11001;BME280;5553;48.506;8.870;2023-04-26T16:15:04;96107.72;;;13.61;58.51
11001;BME280;5553;48.506;8.870;2023-04-26T16:17:32;96125.75;;;13.89;58.95
11001;BME280;5553;48.506;8.870;2023-04-26T16:20:04;96096.84;;;13.19;58.71
11001;BME280;5553;48.506;8.870;2023-04-26T16:22:35;96098.47;;;12.38;59.44
11001;BME280;5553;48.506;8.870;2023-04-26T16:25:04;96162.59;;;12.27;65.57
11001;BME280;5553;48.506;8.870;2023-04-26T16:27:33;96150.22;;;12.66;62.99
11001;BME280;5553;48.506;8.870;2023-04-26T16:30:01;96102.31;;;12.99;58.94
11001;BME280;5553;48.506;8.870;2023-04-26T16:32:29;96134.09;;;13.31;60.43
11001;BME280;5553;48.506;8.870;2023-04-26T16:34:58;96109.56;;;13.10;59.04
11001;BME280;5553;48.506;8.870;2023-04-26T16:37:29;96137.53;;;12.74;61.40
11001;BME280;5553;48.506;8.870;2023-04-26T16:39:57;96140.16;;;12.43;62.82
11001;BME280;5553;48.506;8.870;2023-04-26T16:42:25;96159.28;;;12.45;63.75
11001;BME280;5553;48.506;8.870;2023-04-26T16:44:56;96169.97;;;12.18;65.74
11001;BME280;5553;48.506;8.870;2023-04-26T16:47:25;96136.25;;;12.14;63.33
11001;BME280;5553;48.506;8.870;2023-04-26T16:49:53;96165.16;;;11.95;65.96
11001;BME280;5553;48.506;8.870;2023-04-26T16:52:21;96169.81;;;12.00;66.69
11001;BME280;5553;48.506;8.870;2023-04-26T16:54:52;96173.75;;;11.57;68.89
11001;BME280;5553;48.506;8.870;2023-04-26T16:57:20;96157.72;;;11.46;66.41
11001;BME280;5553;48.506;8.870;2023-04-26T16:59:49;96151.84;;;11.30;66.57
11001;BME280;5553;48.506;8.870;2023-04-26T17:02:18;96155.50;;;11.29;66.83
11001;BME280;5553;48.506;8.870;2023-04-26T17:04:47;96183.13;;;11.33;68.71
11001;BME280;5553;48.506;8.870;2023-04-26T17:07:15;96171.53;;;11.34;68.36
11001;BME280;5553;48.506;8.870;2023-04-26T17:09:43;96174.56;;;11.45;67.72
11001;BME280;5553;48.506;8.870;2023-04-26T17:12:14;96170.94;;;11.19;68.05
11001;BME280;5553;48.506;8.870;2023-04-26T17:14:42;96190.03;;;10.95;69.48
11001;BME280;5553;48.506;8.870;2023-04-26T17:17:10;96201.78;;;10.85;69.75
11001;BME280;5553;48.506;8.870;2023-04-26T17:19:39;96202.53;;;10.66;70.77
11001;BME280;5553;48.506;8.870;2023-04-26T17:22:07;96210.44;;;10.66;71.10
11001;BME280;5553;48.506;8.870;2023-04-26T17:24:36;96207.41;;;10.62;70.72
11001;BME280;5553;48.506;8.870;2023-04-26T17:27:04;96202.50;;;10.53;70.69
11001;BME280;5553;48.506;8.870;2023-04-26T17:29:35;96216.31;;;10.55;71.74
11001;BME280;5553;48.506;8.870;2023-04-26T17:32:04;96225.19;;;10.40;73.18
11001;BME280;5553;48.506;8.870;2023-04-26T17:34:32;96228.44;;;10.36;73.19
11001;BME280;5553;48.506;8.870;2023-04-26T17:37:02;96241.88;;;10.54;73.96
11001;BME280;5553;48.506;8.870;2023-04-26T17:39:31;96249.38;;;10.51;74.81
11001;BME280;5553;48.506;8.870;2023-04-26T17:41:59;96252.78;;;10.44;75.40
11001;BME280;5553;48.506;8.870;2023-04-26T17:44:27;96244.28;;;10.49;75.38
11001;BME280;5553;48.506;8.870;2023-04-26T17:46:58;96253.81;;;10.43;76.61
11001;BME280;5553;48.506;8.870;2023-04-26T17:49:26;96264.09;;;10.32;77.36
11001;BME280;5553;48.506;8.870;2023-04-26T17:51:55;96258.31;;;10.21;77.57
11001;BME280;5553;48.506;8.870;2023-04-26T17:54:23;96275.88;;;10.08;77.83
11001;BME280;5553;48.506;8.870;2023-04-26T17:56:51;96286.69;;;10.13;78.78
11001;BME280;5553;48.506;8.870;2023-04-26T17:59:20;96291.19;;;10.19;79.05
11001;BME280;5553;48.506;8.870;2023-04-26T18:01:48;96292.56;;;10.15;79.51
11001;BME280;5553;48.506;8.870;2023-04-26T18:04:19;96303.66;;;10.04;80.62
11001;BME280;5553;48.506;8.870;2023-04-26T18:06:48;96297.31;;;9.98;80.19
11001;BME280;5553;48.506;8.870;2023-04-26T18:09:16;96306.34;;;9.82;80.28
11001;BME280;5553;48.506;8.870;2023-04-26T18:11:45;96321.66;;;9.72;81.85
11001;BME280;5553;48.506;8.870;2023-04-26T18:14:14;96316.41;;;9.51;82.41
11001;BME280;5553;48.506;8.870;2023-04-26T18:16:43;96322.44;;;9.44;83.92
11001;BME280;5553;48.506;8.870;2023-04-26T18:19:11;96335.47;;;9.31;85.68
11001;BME280;5553;48.506;8.870;2023-04-26T18:21:42;96337.75;;;9.19;87.60
11001;BME280;5553;48.506;8.870;2023-04-26T18:24:11;96336.44;;;9.09;87.07
11001;BME280;5553;48.506;8.870;2023-04-26T18:26:39;96342.47;;;9.02;88.20
11001;BME280;5553;48.506;8.870;2023-04-26T18:29:08;96334.94;;;8.99;87.00
11001;BME280;5553;48.506;8.870;2023-04-26T18:31:36;96343.13;;;8.90;88.47
11001;BME280;5553;48.506;8.870;2023-04-26T18:34:04;96343.56;;;8.93;88.37
11001;BME280;5553;48.506;8.870;2023-04-26T18:36:34;96349.84;;;8.77;90.86
11001;BME280;5553;48.506;8.870;2023-04-26T18:39:05;96348.91;;;8.85;89.77
11001;BME280;5553;48.506;8.870;2023-04-26T18:41:33;96364.44;;;8.80;91.96
11001;BME280;5553;48.506;8.870;2023-04-26T18:44:02;96366.06;;;8.81;92.10
11001;BME280;5553;48.506;8.870;2023-04-26T18:46:35;96374.63;;;8.83;93.83
11001;BME280;5553;48.506;8.870;2023-04-26T18:49:03;96379.69;;;8.85;94.40
11001;BME280;5553;48.506;8.870;2023-04-26T18:51:31;96390.31;;;8.76;96.15
11001;BME280;5553;48.506;8.870;2023-04-26T18:54:00;96404.84;;;8.72;99.01
11001;BME280;5553;48.506;8.870;2023-04-26T18:56:31;96387.13;;;8.81;94.89
11001;BME280;5553;48.506;8.870;2023-04-26T18:59:01;96389.06;;;8.72;96.87
11001;BME280;5553;48.506;8.870;2023-04-26T19:01:30;96411.25;;;8.70;99.65
11001;BME280;5553;48.506;8.870;2023-04-26T19:03:58;96405.91;;;8.63;100.00
11001;BME280;5553;48.506;8.870;2023-04-26T19:06:26;96395.00;;;8.81;98.33
11001;BME280;5553;48.506;8.870;2023-04-26T19:08:55;96381.69;;;8.83;95.17
11001;BME280;5553;48.506;8.870;2023-04-26T19:11:24;96402.81;;;8.74;97.22
11001;BME280;5553;48.506;8.870;2023-04-26T19:13:54;96413.44;;;8.66;97.87
11001;BME280;5553;48.506;8.870;2023-04-26T19:16:23;96423.13;;;8.51;100.00
11001;BME280;5553;48.506;8.870;2023-04-26T19:18:51;96435.47;;;8.50;100.00
11001;BME280;5553;48.506;8.870;2023-04-26T19:21:19;96441.28;;;8.46;100.00
11001;BME280;5553;48.506;8.870;2023-04-26T19:23:47;96451.00;;;8.37;100.00
11001;BME280;5553;48.506;8.870;2023-04-26T19:26:16;96460.09;;;8.35;100.00
11001;BME280;5553;48.506;8.870;2023-04-26T19:28:44;96460.84;;;8.43;100.00
11001;BME280;5553;48.506;8.870;2023-04-26T19:31:15;96452.25;;;8.49;100.00
11001;BME280;5553;48.506;8.870;2023-04-26T19:33:43;96434.09;;;8.54;100.00
11001;BME280;5553;48.506;8.870;2023-04-26T19:36:11;96457.41;;;8.43;100.00
11001;BME280;5553;48.506;8.870;2023-04-26T19:38:40;96454.78;;;8.43;100.00
11001;BME280;5553;48.506;8.870;2023-04-26T19:41:08;96452.94;;;8.43;100.00
11001;BME280;5553;48.506;8.870;2023-04-26T19:43:37;96447.69;;;8.43;100.00
11001;BME280;5553;48.506;8.870;2023-04-26T19:46:10;96455.13;;;8.40;100.00
11001;BME280;5553;48.506;8.870;2023-04-26T19:48:41;96445.75;;;8.37;100.00
11001;BME280;5553;48.506;8.870;2023-04-26T19:51:13;96456.94;;;8.39;100.00
11001;BME280;5553;48.506;8.870;2023-04-26T19:53:41;96454.81;;;8.35;100.00
11001;BME280;5553;48.506;8.870;2023-04-26T19:56:10;96458.72;;;8.24;100.00
11001;BME280;5553;48.506;8.870;2023-04-26T19:58:38;96470.84;;;8.25;100.00
11001;BME280;5553;48.506;8.870;2023-04-26T20:01:07;96456.69;;;8.26;100.00
11001;BME280;5553;48.506;8.870;2023-04-26T20:03:35;96441.56;;;8.28;100.00
11001;BME280;5553;48.506;8.870;2023-04-26T20:06:08;96453.16;;;8.19;100.00
11001;BME280;5553;48.506;8.870;2023-04-26T20:08:38;96440.00;;;8.19;100.00
11001;BME280;5553;48.506;8.870;2023-04-26T20:11:06;96450.16;;;8.22;100.00
11001;BME280;5553;48.506;8.870;2023-04-26T20:13:39;96474.41;;;7.86;100.00
11001;BME280;5553;48.506;8.870;2023-04-26T20:16:08;96508.97;;;7.75;100.00
11001;BME280;5553;48.506;8.870;2023-04-26T20:18:36;96516.69;;;7.76;100.00
11001;BME280;5553;48.506;8.870;2023-04-26T20:21:07;96508.28;;;7.81;100.00
11001;BME280;5553;48.506;8.870;2023-04-26T20:23:36;96499.47;;;7.74;100.00
11001;BME280;5553;48.506;8.870;2023-04-26T20:26:04;96511.47;;;7.68;100.00
11001;BME280;5553;48.506;8.870;2023-04-26T20:28:32;96514.53;;;7.49;100.00
11001;BME280;5553;48.506;8.870;2023-04-26T20:31:01;96511.69;;;7.58;100.00
11001;BME280;5553;48.506;8.870;2023-04-26T20:33:29;96509.72;;;7.60;100.00
11001;BME280;5553;48.506;8.870;2023-04-26T20:35:57;96509.38;;;7.64;100.00
11001;BME280;5553;48.506;8.870;2023-04-26T20:38:28;96512.63;;;7.66;100.00
11001;BME280;5553;48.506;8.870;2023-04-26T20:40:57;96513.94;;;7.70;100.00
11001;BME280;5553;48.506;8.870;2023-04-26T20:43:25;96514.16;;;7.60;100.00
11001;BME280;5553;48.506;8.870;2023-04-26T20:45:53;96519.78;;;7.49;100.00
11001;BME280;5553;48.506;8.870;2023-04-26T20:48:21;96517.28;;;7.55;100.00
11001;BME280;5553;48.506;8.870;2023-04-26T20:50:52;96506.44;;;7.58;100.00
11001;BME280;5553;48.506;8.870;2023-04-26T20:53:21;96499.56;;;7.57;100.00
11001;BME280;5553;48.506;8.870;2023-04-26T20:55:53;96498.59;;;7.50;100.00
11001;BME280;5553;48.506;8.870;2023-04-26T20:58:21;96498.78;;;7.49;100.00
11001;BME280;5553;48.506;8.870;2023-04-26T21:00:49;96508.16;;;7.43;100.00
11001;BME280;5553;48.506;8.870;2023-04-26T21:03:19;96517.50;;;7.46;100.00
11001;BME280;5553;48.506;8.870;2023-04-26T21:05:47;96519.94;;;7.47;100.00
11001;BME280;5553;48.506;8.870;2023-04-26T21:08:16;96509.78;;;7.44;100.00
11001;BME280;5553;48.506;8.870;2023-04-26T21:10:44;96494.16;;;7.51;100.00
11001;BME280;5553;48.506;8.870;2023-04-26T21:13:15;96493.69;;;7.47;100.00
11001;BME280;5553;48.506;8.870;2023-04-26T21:15:44;96491.25;;;7.46;100.00